Time;durP1;ratioP1;P1;durP2;ratioP2;P2;SDS_P1;SDS_P2;PMS_P1;PMS_P2;Temp;Humidity;BMP_temperature;BMP_pressure;BME280_temperature;BME280_humidity;BME280_pressure;Samples;Min_cycle;Max_cycle;Signal;HPM_P1;HPM_P2
2021/07/18 08:22:47;;;;;;;9.08;4.40;;;;;;;25.88;52.10;101139.21;1684934;84;21005;-79
2021/07/18 08:25:15;;;;;;;8.35;4.00;;;;;;;25.78;52.10;101138.63;1681465;84;21294;-78
2021/07/18 08:27:42;;;;;;;11.05;4.80;;;;;;;25.75;52.12;101138.75;1683709;84;21138;-78
2021/07/18 08:30:10;;;;;;;12.73;4.47;;;;;;;25.77;52.29;101144.06;1681295;84;21808;-78
2021/07/18 08:32:37;;;;;;;8.78;4.58;;;;;;;25.77;52.25;101144.98;1687991;83;21081;-78
2021/07/18 08:35:09;;;;;;;7.83;3.72;;;;;;;25.76;52.33;101146.37;1683571;85;21107;-85
2021/07/18 08:37:36;;;;;;;9.20;3.45;;;;;;;25.80;52.44;101141.28;1682393;84;21020;-79
2021/07/18 08:40:05;;;;;;;7.70;2.83;;;;;;;25.86;52.27;101153.21;1688476;84;21028;-78
2021/07/18 08:42:31;;;;;;;6.25;2.65;;;;;;;25.89;52.35;101138.29;1698522;82;21180;-78
2021/07/18 08:45:00;;;;;;;8.18;2.87;;;;;;;25.96;52.24;101141.72;1707491;83;21130;-79
2021/07/18 08:47:26;;;;;;;4.47;2.25;;;;;;;25.92;52.12;101134.63;1695167;83;21106;-79
2021/07/18 08:49:53;;;;;;;6.55;2.75;;;;;;;25.90;52.34;101130.63;1662625;85;21098;-80
2021/07/18 08:52:21;;;;;;;5.37;2.80;;;;;;;26.08;52.56;101130.98;1689989;83;21537;-80
2021/07/18 08:54:53;;;;;;;9.85;3.05;;;;;;;26.25;52.71;101136.67;1702109;82;22501;-81
2021/07/18 08:57:22;;;;;;;5.28;2.33;;;;;;;26.52;52.63;101134.84;1705489;82;21098;-81
2021/07/18 08:59:49;;;;;;;10.60;3.22;;;;;;;26.89;52.34;101134.87;1692527;83;21046;-80
2021/07/18 09:02:15;;;;;;;9.93;5.58;;;;;;;27.33;52.12;101137.77;1686289;83;21723;-81
2021/07/18 09:04:42;;;;;;;5.40;3.65;;;;;;;27.77;51.43;101138.77;1717058;82;21120;-80
2021/07/18 09:07:10;;;;;;;7.55;3.33;;;;;;;28.12;50.91;101127.88;1717588;82;21898;-80
2021/07/18 09:09:37;;;;;;;10.68;2.85;;;;;;;28.30;50.29;101121.67;1696213;83;21086;-81
2021/07/18 09:12:07;;;;;;;11.78;3.20;;;;;;;28.32;49.71;101132.41;1679448;84;21626;-82
2021/07/18 09:14:38;;;;;;;8.40;2.77;;;;;;;28.30;49.73;101124.83;1698673;83;21639;-82
2021/07/18 09:17:12;;;;;;;10.88;4.00;;;;;;;28.54;49.83;101128.33;1681127;84;21407;-82
2021/07/18 09:19:41;;;;;;;8.03;2.75;;;;;;;28.66;49.20;101129.16;1678054;83;21832;-83
2021/07/18 09:22:11;;;;;;;10.55;2.75;;;;;;;28.66;49.20;101129.16;1684713;83;21720;-83
2021/07/18 09:25:01;;;;;;;5.33;3.30;;;;;;;28.56;49.33;101128.27;1684413;83;21162;-84
2021/07/18 09:27:36;;;;;;;7.92;2.37;;;;;;;28.38;48.63;101124.50;1653310;83;21292;-86
2021/07/18 09:30:11;;;;;;;6.55;2.27;;;;;;;28.02;48.56;101126.48;1671953;83;21014;-87
2021/07/18 09:32:41;;;;;;;7.87;2.52;;;;;;;27.74;48.91;101116.76;1679622;83;21794;-83
2021/07/18 09:35:12;;;;;;;9.20;3.08;;;;;;;27.83;49.76;101123.62;1692316;84;21085;-83
2021/07/18 09:37:44;;;;;;;6.70;2.42;;;;;;;28.09;49.84;101125.28;1682222;83;21587;-83
2021/07/18 09:40:15;;;;;;;13.65;3.22;;;;;;;28.20;49.51;101127.55;1688718;84;21055;-82
2021/07/18 09:42:53;;;;;;;6.60;2.30;;;;;;;28.16;49.02;101128.14;1673386;83;21125;-82
2021/07/18 09:45:22;;;;;;;5.95;2.50;;;;;;;27.99;48.76;101130.20;1691303;84;21820;-82
2021/07/18 09:48:08;;;;;;;8.35;2.05;;;;;;;27.80;48.41;101130.50;1682257;84;21103;-82
2021/07/18 09:50:44;;;;;;;5.42;2.30;;;;;;;27.67;48.18;101142.32;1676101;85;21466;-82
2021/07/18 09:53:19;;;;;;;5.10;2.00;;;;;;;27.68;48.57;101127.36;1677243;83;21107;-82
2021/07/18 09:56:12;;;;;;;8.43;3.05;;;;;;;27.97;48.84;101135.25;1680832;84;21054;-82
2021/07/18 09:58:42;;;;;;;9.05;3.17;;;;;;;28.24;48.77;101133.22;1690518;84;22093;-82
2021/07/18 10:01:14;;;;;;;4.92;2.27;;;;;;;28.52;48.51;101137.00;1681361;84;21362;-82
2021/07/18 10:03:54;;;;;;;10.95;2.62;;;;;;;28.69;48.16;101134.90;1673558;84;21150;-85
2021/07/18 10:06:23;;;;;;;6.62;2.98;;;;;;;28.63;47.43;101126.58;1674974;83;21035;-82
2021/07/18 10:09:01;;;;;;;8.40;2.98;;;;;;;28.38;47.44;101128.55;1674158;84;21510;-82
2021/07/18 10:11:29;;;;;;;12.90;4.10;;;;;;;28.33;47.95;101126.55;1679309;83;22007;-83
2021/07/18 10:13:58;;;;;;;6.53;3.27;;;;;;;28.61;48.24;101123.54;1684271;83;21437;-83
2021/07/18 10:16:27;;;;;;;4.60;2.30;;;;;;;28.77;47.85;101125.07;1673644;85;21087;-83
2021/07/18 10:18:56;;;;;;;13.83;3.45;;;;;;;28.60;47.59;101125.83;1679013;83;21146;-83
2021/07/18 10:21:28;;;;;;;5.28;2.12;;;;;;;28.35;47.49;101124.65;1681806;84;20996;-83
2021/07/18 10:23:56;;;;;;;6.65;2.77;;;;;;;28.09;47.54;101127.51;1671953;84;21792;-83
2021/07/18 10:26:26;;;;;;;7.53;2.40;;;;;;;27.88;47.47;101132.45;1672023;83;21046;-83
2021/07/18 10:28:54;;;;;;;7.22;2.52;;;;;;;27.62;47.85;101128.09;1678210;84;21539;-82
2021/07/18 10:31:32;;;;;;;4.42;2.30;;;;;;;27.36;47.93;101124.59;1686835;83;21081;-82
2021/07/18 10:34:00;;;;;;;6.90;2.70;;;;;;;27.21;48.22;101123.80;1678674;83;20976;-83
2021/07/18 10:36:27;;;;;;;7.58;2.45;;;;;;;27.22;48.52;101130.52;1683936;84;22908;-83
2021/07/18 10:38:54;;;;;;;4.12;2.10;;;;;;;27.27;48.62;101129.91;1691239;84;21578;-83
2021/07/18 10:41:42;;;;;;;6.47;2.37;;;;;;;27.29;48.63;101119.01;1689492;83;21095;-83
2021/07/18 10:44:14;;;;;;;4.65;2.05;;;;;;;27.31;48.78;101120.73;1689157;84;21558;-83
2021/07/18 10:46:48;;;;;;;7.28;2.12;;;;;;;27.30;48.63;101109.49;1689678;84;21037;-81
2021/07/18 10:49:15;;;;;;;9.90;1.90;;;;;;;27.27;48.68;101120.89;1689473;85;21116;-81
2021/07/18 10:51:45;;;;;;;4.60;2.20;;;;;;;27.22;48.61;101118.34;1688562;83;21034;-82
2021/07/18 10:54:17;;;;;;;3.85;2.40;;;;;;;27.22;48.90;101126.94;1676625;83;21059;-82
2021/07/18 10:56:50;;;;;;;4.37;1.95;;;;;;;27.25;48.80;101122.30;1667364;84;21075;-83
2021/07/18 10:59:35;;;;;;;7.15;2.25;;;;;;;27.25;48.53;101116.89;1658358;85;21016;-90
2021/07/18 11:02:17;;;;;;;4.62;1.87;;;;;;;27.26;48.75;101111.91;1696985;83;21834;-80
2021/07/18 11:04:49;;;;;;;4.33;2.00;;;;;;;27.32;48.54;101110.31;1691861;84;21111;-78
2021/07/18 11:07:36;;;;;;;8.95;2.58;;;;;;;27.37;48.49;101113.30;1713289;83;21111;-77
2021/07/18 11:10:14;;;;;;;5.17;1.95;;;;;;;27.46;48.46;101116.99;1712256;82;21119;-77
2021/07/18 11:12:51;;;;;;;11.97;2.80;;;;;;;27.48;48.07;101118.72;1708578;84;21628;-76
2021/07/18 11:15:24;;;;;;;15.28;3.17;;;;;;;27.40;48.02;101114.55;1665837;84;21806;-76
2021/07/18 11:18:09;;;;;;;5.05;2.30;;;;;;;27.45;47.99;101115.25;1695815;83;21039;-76
2021/07/18 11:20:53;;;;;;;4.95;3.05;;;;;;;27.61;48.04;101111.45;1708283;83;20974;-75
2021/07/18 11:23:21;;;;;;;;;;;;;;;27.82;48.07;101104.30;1714410;83;21191;-75
2021/07/18 11:25:59;;;;;;;9.85;2.37;;;;;;;27.99;47.51;101106.34;1709260;84;20225;-76
2021/07/18 11:28:36;;;;;;;6.87;3.70;;;;;;;28.17;47.73;101100.59;1709343;83;22646;-76
2021/07/18 11:31:12;;;;;;;8.00;2.10;;;;;;;28.40;47.51;101096.88;1666723;83;21069;-76
2021/07/18 11:34:09;;;;;;;6.05;2.47;;;;;;;28.52;47.21;101099.54;1686451;83;21583;-76
2021/07/18 11:36:44;;;;;;;7.25;2.10;;;;;;;28.50;46.99;101097.77;1684474;83;20983;-76
2021/07/18 11:39:17;;;;;;;5.53;2.25;;;;;;;28.46;47.03;101099.34;1677741;84;21570;-76
2021/07/18 11:41:44;;;;;;;7.53;1.95;;;;;;;28.54;46.95;101101.25;1716340;83;21766;-75
2021/07/18 11:44:12;;;;;;;6.83;2.08;;;;;;;28.63;46.72;101099.48;1690347;83;21197;-75
2021/07/18 11:46:41;;;;;;;9.73;2.80;;;;;;;28.64;46.52;101103.97;1697437;84;21584;-76
2021/07/18 11:49:08;;;;;;;5.83;2.55;;;;;;;28.55;46.41;101098.97;1700326;84;20953;-76
2021/07/18 11:51:37;;;;;;;6.50;3.27;;;;;;;28.48;46.34;101099.66;1702269;84;21004;-75
2021/07/18 11:54:03;;;;;;;6.80;2.50;;;;;;;28.42;46.36;101098.59;1700555;84;21904;-75
2021/07/18 11:56:32;;;;;;;3.83;2.25;;;;;;;28.42;46.48;101089.11;1704680;83;21028;-75
2021/07/18 11:59:11;;;;;;;6.22;2.70;;;;;;;28.47;46.58;101093.86;1699049;83;21096;-77
2021/07/18 12:01:41;;;;;;;4.85;1.92;;;;;;;28.44;46.34;101084.98;1700376;84;21170;-77
2021/07/18 12:04:08;;;;;;;3.08;1.87;;;;;;;28.35;46.59;101089.45;1702656;83;21530;-77
2021/07/18 12:06:34;;;;;;;4.12;1.92;;;;;;;28.34;46.28;101083.14;1700873;83;21797;-76
2021/07/18 12:09:16;;;;;;;7.58;2.02;;;;;;;28.27;46.57;101082.55;1682278;84;21000;-76
2021/07/18 12:11:43;;;;;;;6.05;2.00;;;;;;;28.25;46.25;101087.63;1703083;83;21008;-76
2021/07/18 12:14:10;;;;;;;5.87;2.15;;;;;;;28.21;46.35;101081.92;1701482;84;20980;-76
2021/07/18 12:16:44;;;;;;;6.05;1.77;;;;;;;28.25;46.46;101082.22;1700473;84;21008;-76
2021/07/18 12:19:07;;;;;;;9.50;2.02;;;;;;;28.43;46.49;101084.57;1695733;84;21869;-76
2021/07/18 12:21:36;;;;;;;6.17;1.57;;;;;;;28.61;46.36;101082.43;1698186;83;20985;-76
2021/07/18 12:24:27;;;;;;;5.15;1.95;;;;;;;28.80;46.26;101080.24;1680767;84;21106;-76
2021/07/18 12:27:05;;;;;;;12.18;2.25;;;;;;;28.88;45.92;101076.69;1700145;84;21267;-76
2021/07/18 12:29:52;;;;;;;7.90;2.30;;;;;;;28.79;45.61;101096.95;1692412;83;21023;-76
2021/07/18 12:32:21;;;;;;;5.85;1.80;;;;;;;28.60;45.58;101081.14;1668498;85;21755;-76
2021/07/18 12:34:52;;;;;;;8.10;2.17;;;;;;;28.38;45.12;101082.53;1652624;84;21036;-76
2021/07/18 12:37:21;;;;;;;6.80;1.55;;;;;;;28.21;45.35;101082.82;1685245;83;21642;-76
2021/07/18 12:40:00;;;;;;;7.12;1.62;;;;;;;28.13;45.71;101086.80;1675974;84;21313;-76
2021/07/18 12:42:36;;;;;;;4.67;1.77;;;;;;;28.10;45.88;101079.22;1678000;84;21016;-76
2021/07/18 12:50:36;;;;;;;6.70;1.42;;;;;;;27.89;45.67;101085.52;1694136;84;21561;-77
2021/07/18 12:53:15;;;;;;;8.70;1.80;;;;;;;27.73;45.73;101082.56;1698418;84;21020;-77
2021/07/18 12:55:57;;;;;;;5.17;2.92;;;;;;;27.69;45.89;101083.16;1702957;83;21080;-78
2021/07/18 12:58:28;;;;;;;17.10;2.67;;;;;;;27.70;45.89;101077.27;1700667;84;21883;-76
2021/07/18 13:01:12;;;;;;;3.17;2.00;;;;;;;27.69;45.80;101069.63;1657508;85;21043;-78
2021/07/18 13:03:50;;;;;;;11.45;2.37;;;;;;;27.73;45.62;101073.09;1691780;84;21102;-78
2021/07/18 13:06:23;;;;;;;6.83;2.02;;;;;;;27.75;45.76;101076.61;1676449;83;21004;-78
2021/07/18 13:08:51;;;;;;;5.50;2.12;;;;;;;27.74;45.60;101076.19;1695203;84;21056;-75
2021/07/18 13:11:31;;;;;;;8.80;2.37;;;;;;;27.75;45.60;101077.97;1698799;83;22643;-75
2021/07/18 13:13:57;;;;;;;6.20;2.20;;;;;;;27.77;45.44;101068.44;1682171;83;21122;-75
2021/07/18 13:16:36;;;;;;;4.62;1.85;;;;;;;27.68;45.52;101074.62;1650502;86;22261;-75
2021/07/18 13:19:15;;;;;;;3.85;1.85;;;;;;;27.66;45.62;101070.23;1659894;84;21024;-75
2021/07/18 13:21:41;;;;;;;5.25;2.80;;;;;;;27.60;45.67;101066.44;1660027;85;21080;-75
2021/07/18 13:24:08;;;;;;;10.28;2.67;;;;;;;27.59;45.81;101066.92;1676512;85;21611;-77
2021/07/18 13:26:38;;;;;;;12.50;2.90;;;;;;;27.58;45.83;101077.79;1693483;84;21007;-76
2021/07/18 13:29:20;;;;;;;6.83;3.50;;;;;;;27.49;45.78;101085.31;1675794;83;21177;-76
2021/07/18 13:31:51;;;;;;;7.33;2.37;;;;;;;27.35;45.95;101076.89;1685756;84;20963;-76
2021/07/18 13:34:20;;;;;;;4.45;1.55;;;;;;;27.40;46.10;101073.52;1673597;84;21624;-76
2021/07/18 13:36:58;;;;;;;3.22;2.17;;;;;;;27.46;46.14;101084.10;1672343;84;21841;-83
2021/07/18 13:39:28;;;;;;;9.43;2.50;;;;;;;27.52;46.16;101077.09;1671442;85;21092;-88
2021/07/18 13:44:39;;;;;;;6.37;1.60;;;;;;;27.59;45.54;101076.83;1676432;84;21063;-85
2021/07/18 13:47:08;;;;;;;4.80;1.60;;;;;;;27.52;45.68;101074.86;1676672;84;21029;-87
2021/07/18 13:49:34;;;;;;;12.35;1.87;;;;;;;27.59;45.72;101077.73;1681649;84;21802;-88
2021/07/18 13:52:02;;;;;;;8.58;5.08;;;;;;;27.64;45.83;101077.53;1671585;84;21037;-88
2021/07/18 13:54:28;;;;;;;6.65;1.95;;;;;;;27.61;45.43;101075.84;1693136;84;21031;-88
2021/07/18 13:56:55;;;;;;;14.00;3.65;;;;;;;27.56;45.68;101075.62;1693983;83;21015;-85
2021/07/18 13:59:22;;;;;;;9.35;2.67;;;;;;;27.60;45.72;101074.06;1674606;84;21506;-85
2021/07/18 14:01:48;;;;;;;9.53;2.50;;;;;;;27.62;45.61;101080.29;1681851;84;21807;-83
2021/07/18 14:04:58;;;;;;;9.65;1.80;;;;;;;27.57;45.47;101074.66;1715518;83;21441;-85
2021/07/18 14:13:37;;;;;;;6.60;2.33;;;;;;;27.25;45.60;101080.41;1459559;96;21278;-81
2021/07/18 14:16:05;;;;;;;5.60;2.25;;;;;;;27.16;45.91;101086.17;1459039;96;21855;-82
2021/07/18 14:18:32;;;;;;;7.28;2.35;;;;;;;27.14;45.94;101090.72;1445699;96;21173;-79
2021/07/18 14:20:59;;;;;;;8.58;2.67;;;;;;;27.03;45.78;101086.20;1451108;97;21137;-81
2021/07/18 14:23:26;;;;;;;6.72;2.20;;;;;;;26.92;46.18;101077.17;1460368;97;21705;-81
2021/07/18 14:25:53;;;;;;;16.48;2.00;;;;;;;26.92;46.36;101067.25;1450911;96;21176;-81
2021/07/18 14:28:19;;;;;;;3.02;1.80;;;;;;;26.91;46.45;101074.92;1457918;96;22001;-80
2021/07/18 14:30:46;;;;;;;6.08;1.62;;;;;;;26.96;46.37;101073.41;1452538;97;21632;-81
2021/07/18 14:33:15;;;;;;;4.28;1.70;;;;;;;26.98;46.32;101078.28;1457947;97;21113;-81
2021/07/18 14:35:42;;;;;;;10.00;2.30;;;;;;;26.96;46.20;101075.64;1461495;97;21247;-81
2021/07/18 14:38:09;;;;;;;9.88;4.42;;;;;;;26.95;46.55;101086.49;1454401;97;21977;-81
2021/07/18 14:40:36;;;;;;;4.95;3.02;;;;;;;26.91;46.38;101076.27;1458167;97;22044;-81
2021/07/18 14:43:06;;;;;;;8.55;2.90;;;;;;;26.87;46.32;101081.39;1488784;93;21189;-81
2021/07/18 14:45:33;;;;;;;5.47;3.10;;;;;;;26.72;46.42;101080.62;1514374;92;21199;-81
2021/07/18 14:48:00;;;;;;;12.43;3.92;;;;;;;26.61;46.50;101093.63;1568824;87;21189;-81
2021/07/18 14:50:27;;;;;;;9.70;4.20;;;;;;;26.46;46.70;101086.45;1619566;85;21576;-81
2021/07/18 14:52:54;;;;;;;8.50;3.27;;;;;;;26.35;46.70;101092.26;1689289;83;21832;-81
2021/07/18 14:55:29;;;;;;;9.90;3.12;;;;;;;26.23;46.77;101088.63;1683382;85;21011;-89
2021/07/18 14:57:56;;;;;;;6.55;3.33;;;;;;;26.17;46.80;101092.89;1687035;85;20996;-85
2021/07/18 15:00:23;;;;;;;11.22;3.70;;;;;;;26.18;46.95;101090.59;1696726;84;21528;-85
2021/07/18 15:02:51;;;;;;;5.30;3.33;;;;;;;26.19;47.03;101085.16;1683328;84;21094;-82
2021/07/18 15:05:18;;;;;;;8.53;4.35;;;;;;;26.26;47.17;101081.78;1683572;84;21777;-85
2021/07/18 15:07:44;;;;;;;9.43;5.00;;;;;;;26.31;47.07;101093.27;1683466;84;20964;-84
2021/07/18 15:10:14;;;;;;;8.00;4.65;;;;;;;26.34;46.99;101087.78;1681398;84;21047;-83
2021/07/18 15:12:41;;;;;;;10.90;5.72;;;;;;;26.35;46.97;101094.05;1679798;84;21526;-85
2021/07/18 15:15:14;;;;;;;9.60;5.35;;;;;;;26.33;46.90;101098.18;1660935;84;21109;-85
2021/07/18 15:17:42;;;;;;;10.15;5.20;;;;;;;26.27;46.80;101099.72;1663010;84;22519;-86
2021/07/18 15:20:12;;;;;;;11.08;5.28;;;;;;;26.17;46.73;101097.81;1673431;84;21082;-83
2021/07/18 15:22:39;;;;;;;12.20;5.83;;;;;;;26.04;46.82;101105.05;1679332;84;21188;-82
2021/07/18 15:25:07;;;;;;;12.20;5.80;;;;;;;25.90;47.06;101095.58;1683209;84;21593;-83
2021/07/18 15:27:34;;;;;;;9.50;6.12;;;;;;;25.79;47.03;101093.22;1683389;85;21138;-82
2021/07/18 15:30:01;;;;;;;16.23;7.37;;;;;;;25.72;47.21;101090.30;1673477;84;21839;-79
2021/07/18 15:32:27;;;;;;;11.05;7.58;;;;;;;25.72;47.44;101091.66;1671939;85;21048;-79
2021/07/18 15:34:54;;;;;;;7.78;6.97;;;;;;;25.76;47.48;101083.88;1679121;84;21110;-80
2021/07/18 15:37:21;;;;;;;11.68;7.87;;;;;;;25.79;47.35;101079.74;1671478;84;21281;-80
2021/07/18 15:39:56;;;;;;;12.35;6.65;;;;;;;25.84;47.36;101086.79;1676069;84;21083;-88
2021/07/18 15:42:23;;;;;;;16.85;7.85;;;;;;;25.76;47.22;101087.92;1683700;85;21978;-89
2021/07/18 15:44:50;;;;;;;12.18;7.40;;;;;;;25.65;47.36;101087.86;1660912;85;21107;-88
2021/07/18 15:47:21;;;;;;;16.00;7.58;;;;;;;25.54;47.30;101090.42;1683472;84;21098;-90
2021/07/18 15:49:48;;;;;;;12.43;7.00;;;;;;;25.47;47.44;101100.10;1680447;85;21411;-90
2021/07/18 15:52:15;;;;;;;11.35;6.83;;;;;;;25.40;47.54;101096.26;1683618;83;21027;-90
2021/07/18 15:54:42;;;;;;;18.55;7.90;;;;;;;25.38;47.72;101095.43;1683211;84;21795;-87
2021/07/18 15:57:09;;;;;;;14.15;7.42;;;;;;;25.28;47.72;101098.45;1684006;83;21047;-89
2021/07/18 15:59:35;;;;;;;16.02;7.60;;;;;;;25.18;47.91;101097.34;1683698;83;21000;-87
2021/07/18 16:02:03;;;;;;;18.48;8.10;;;;;;;25.02;48.06;101100.97;1683613;83;21027;-87
2021/07/18 16:04:30;;;;;;;14.83;7.75;;;;;;;24.96;48.19;101091.73;1657502;84;21043;-88
2021/07/18 16:06:57;;;;;;;13.48;7.12;;;;;;;24.91;48.22;101100.41;1683305;83;21778;-87
2021/07/18 16:09:24;;;;;;;9.90;7.80;;;;;;;24.93;48.38;101099.89;1683583;85;21020;-88
2021/07/18 16:11:54;;;;;;;10.32;7.75;;;;;;;24.98;48.35;101106.48;1683432;84;21032;-88
2021/07/18 16:14:21;;;;;;;12.07;8.10;;;;;;;24.98;48.36;101097.05;1676502;85;21481;-88
2021/07/18 16:16:51;;;;;;;12.55;8.65;;;;;;;25.04;48.34;101102.28;1675584;83;21008;-88
2021/07/18 16:19:21;;;;;;;12.78;7.45;;;;;;;25.07;48.38;101099.48;1672113;85;21550;-88
2021/07/18 16:21:48;;;;;;;11.75;8.25;;;;;;;25.14;48.23;101100.19;1651230;84;21019;-88
2021/07/18 16:24:15;;;;;;;12.47;8.08;;;;;;;25.24;48.11;101104.86;1718704;83;21532;-88
2021/07/18 16:26:41;;;;;;;25.65;9.65;;;;;;;25.25;48.00;101110.21;1711252;83;21019;-89
2021/07/18 16:29:10;;;;;;;9.58;7.15;;;;;;;25.28;47.81;101101.14;1693230;83;21087;-89
2021/07/18 16:31:37;;;;;;;17.00;8.10;;;;;;;25.26;47.81;101094.45;1704810;83;22601;-89
2021/07/18 16:34:03;;;;;;;16.12;8.25;;;;;;;25.30;47.68;101104.22;1700082;84;21008;-88
2021/07/18 16:36:30;;;;;;;10.53;7.92;;;;;;;25.22;47.70;101115.64;1700973;84;21063;-88
2021/07/18 16:38:57;;;;;;;11.28;7.97;;;;;;;25.15;47.57;101107.33;1705900;83;21004;-88
2021/07/18 16:41:28;;;;;;;11.80;8.08;;;;;;;25.04;47.63;101113.05;1694895;84;21004;-88
2021/07/18 16:43:55;;;;;;;8.93;7.05;;;;;;;24.94;47.65;101114.23;1700540;84;22454;-88
2021/07/18 16:46:21;;;;;;;11.63;7.55;;;;;;;24.82;47.86;101110.97;1701631;84;21071;-89
2021/07/18 16:48:48;;;;;;;11.03;7.30;;;;;;;24.76;47.99;101113.84;1694739;83;21017;-89
2021/07/18 16:51:15;;;;;;;10.00;7.30;;;;;;;24.75;47.96;101115.22;1705649;84;21040;-88
2021/07/18 16:53:42;;;;;;;13.15;7.62;;;;;;;24.67;48.12;101118.61;1695992;83;21026;-88
2021/07/18 16:56:12;;;;;;;12.73;6.87;;;;;;;24.59;48.17;101116.13;1712035;83;21765;-88
2021/07/18 16:58:38;;;;;;;25.35;7.40;;;;;;;24.57;48.44;101119.30;1711083;83;21000;-88
2021/07/18 17:01:07;;;;;;;13.03;6.80;;;;;;;24.55;48.54;101117.11;1711466;83;21027;-89
2021/07/18 17:03:33;;;;;;;12.75;7.00;;;;;;;24.50;48.63;101123.95;1696364;83;21048;-88
2021/07/18 17:06:03;;;;;;;19.55;7.08;;;;;;;24.44;48.57;101121.42;1698865;84;21032;-88
2021/07/18 17:08:33;;;;;;;8.58;6.65;;;;;;;24.35;48.62;101131.96;1697154;84;21727;-88
2021/07/18 17:10:58;;;;;;;12.35;6.70;;;;;;;24.24;48.43;101134.92;1698651;84;21059;-88
2021/07/18 17:13:25;;;;;;;14.10;6.70;;;;;;;24.05;48.60;101135.85;1700419;84;21506;-88
2021/07/18 17:15:52;;;;;;;12.25;8.13;;;;;;;23.95;48.88;101141.05;1700168;84;20996;-88
2021/07/18 17:18:19;;;;;;;13.08;7.15;;;;;;;23.95;49.21;101133.42;1696886;84;20989;-88
2021/07/18 17:20:45;;;;;;;8.50;6.80;;;;;;;23.93;49.22;101134.83;1700458;84;21755;-88
2021/07/18 17:23:12;;;;;;;11.12;6.15;;;;;;;23.84;49.19;101134.58;1708126;84;21087;-88
2021/07/18 17:25:39;;;;;;;9.28;6.45;;;;;;;23.79;49.31;101136.48;1708430;83;20960;-88
2021/07/18 17:28:05;;;;;;;17.12;8.05;;;;;;;23.81;49.42;101140.48;1702570;83;21131;-89
2021/07/18 17:30:36;;;;;;;9.60;7.30;;;;;;;23.76;49.33;101151.33;1700260;84;21028;-88
2021/07/18 17:33:01;;;;;;;13.75;8.10;;;;;;;23.69;49.32;101147.01;1707362;83;21893;-89
2021/07/18 17:35:28;;;;;;;12.25;6.37;;;;;;;23.66;49.33;101152.44;1702415;83;20988;-89
2021/07/18 17:37:55;;;;;;;7.78;5.65;;;;;;;23.57;49.34;101148.15;1702137;83;21173;-88
2021/07/18 17:40:21;;;;;;;11.08;5.53;;;;;;;23.48;49.45;101151.04;1701287;84;21189;-88
2021/07/18 17:42:50;;;;;;;9.65;6.30;;;;;;;23.38;49.52;101150.36;1703500;83;21090;-88
2021/07/18 17:45:17;;;;;;;10.13;5.95;;;;;;;23.25;49.59;101148.86;1699422;84;21804;-88
2021/07/18 17:47:45;;;;;;;9.95;5.65;;;;;;;23.14;49.72;101153.58;1679389;84;21020;-88
2021/07/18 17:50:16;;;;;;;9.13;4.75;;;;;;;23.05;49.95;101151.52;1700515;83;21115;-88
2021/07/18 17:52:44;;;;;;;9.30;4.78;;;;;;;22.98;50.07;101153.86;1679366;84;21056;-83
2021/07/18 17:55:12;;;;;;;8.33;4.90;;;;;;;22.94;50.19;101148.56;1671152;85;21067;-83
2021/07/18 17:57:39;;;;;;;8.73;6.03;;;;;;;22.81;50.35;101151.97;1669666;85;21792;-84
2021/07/18 18:00:10;;;;;;;6.25;5.00;;;;;;;22.59;50.35;101147.00;1671300;85;21103;-81
2021/07/18 18:02:36;;;;;;;8.33;4.70;;;;;;;22.59;50.35;101147.00;1689235;84;21439;-81
2021/07/18 18:05:08;;;;;;;9.93;4.80;;;;;;;22.50;50.63;101150.76;1673543;84;21036;-81
2021/07/18 18:07:38;;;;;;;8.33;4.17;;;;;;;22.40;50.72;101149.13;1667620;84;21080;-81
2021/07/18 18:10:08;;;;;;;9.63;4.53;;;;;;;22.34;51.00;101159.98;1671320;84;21812;-81
2021/07/18 18:12:34;;;;;;;9.75;4.50;;;;;;;22.16;51.14;101138.80;1678553;84;21009;-81
2021/07/18 18:15:01;;;;;;;12.05;4.45;;;;;;;22.22;51.19;101162.82;1670804;85;21009;-83
2021/07/18 18:17:34;;;;;;;10.58;4.42;;;;;;;22.13;51.14;101155.83;1673073;84;21107;-81
2021/07/18 18:20:04;;;;;;;9.40;3.85;;;;;;;22.02;51.19;101157.34;1642488;85;21083;-81
2021/07/18 18:22:32;;;;;;;8.55;4.25;;;;;;;21.91;51.29;101160.18;1671251;85;21703;-80
2021/07/18 18:24:59;;;;;;;8.00;3.12;;;;;;;21.83;51.36;101158.52;1677495;83;21047;-81
2021/07/18 18:27:26;;;;;;;9.55;4.08;;;;;;;21.71;51.49;101155.57;1669617;84;20981;-81
2021/07/18 18:29:53;;;;;;;5.37;3.42;;;;;;;21.60;51.59;101160.20;1675559;84;21117;-82
2021/07/18 18:32:20;;;;;;;9.33;3.90;;;;;;;21.52;51.78;101162.98;1670774;84;21025;-82
2021/07/18 18:34:47;;;;;;;8.05;3.80;;;;;;;21.42;51.94;101155.50;1670939;85;22038;-81
2021/07/18 18:37:14;;;;;;;10.25;3.65;;;;;;;21.32;52.11;101152.50;1670993;84;21048;-83
2021/07/18 18:39:43;;;;;;;9.70;3.75;;;;;;;21.21;52.31;101157.10;1671160;84;21053;-83
2021/07/18 18:42:12;;;;;;;9.78;4.25;;;;;;;21.10;52.57;101156.80;1683800;84;21580;-83
2021/07/18 18:44:40;;;;;;;9.80;3.90;;;;;;;21.01;52.78;101157.36;1643654;85;21068;-82
2021/07/18 18:47:07;;;;;;;10.05;4.47;;;;;;;20.92;53.07;101151.66;1675981;85;21786;-82
2021/07/18 18:49:34;;;;;;;6.47;3.72;;;;;;;20.81;53.31;101153.10;1665869;85;20961;-82
2021/07/18 18:52:01;;;;;;;9.28;4.17;;;;;;;20.72;53.50;101159.46;1673303;84;21512;-82
2021/07/18 18:54:34;;;;;;;8.58;3.80;;;;;;;20.63;53.74;101150.19;1669169;85;21005;-87
2021/07/18 18:57:05;;;;;;;11.93;4.37;;;;;;;20.54;53.95;101156.94;1574277;88;21048;-88
2021/07/18 18:59:32;;;;;;;6.80;4.30;;;;;;;20.42;54.23;101149.92;1565589;89;21802;-88
2021/07/18 19:01:59;;;;;;;6.62;4.00;;;;;;;20.32;54.45;101151.77;1595820;89;21066;-88
2021/07/18 19:04:26;;;;;;;10.45;4.25;;;;;;;20.24;54.69;101158.10;1605025;89;21077;-88
2021/07/18 19:06:54;;;;;;;5.28;4.33;;;;;;;20.15;54.91;101166.61;1586548;89;21050;-89
2021/07/18 19:09:22;;;;;;;8.15;4.42;;;;;;;20.06;55.12;101160.45;1606993;89;21083;-88
2021/07/18 19:11:49;;;;;;;12.07;4.60;;;;;;;19.97;55.32;101164.08;1607241;89;21796;-88
2021/07/18 19:14:18;;;;;;;7.85;4.20;;;;;;;19.87;55.51;101163.26;1607117;89;21082;-88
2021/07/18 19:16:47;;;;;;;9.90;5.00;;;;;;;19.78;55.74;101164.65;1607419;89;21548;-88
2021/07/18 19:19:14;;;;;;;10.65;4.20;;;;;;;19.71;55.99;101173.59;1607286;89;21066;-88
2021/07/18 19:21:41;;;;;;;13.40;4.58;;;;;;;19.62;56.25;101168.72;1607218;89;21169;-88
2021/07/18 19:24:13;;;;;;;9.70;4.15;;;;;;;19.53;56.48;101174.11;1584442;89;21797;-88
2021/07/18 19:26:40;;;;;;;9.05;4.35;;;;;;;19.45;56.67;101172.40;1606399;89;21066;-88
2021/07/18 19:29:14;;;;;;;9.90;4.42;;;;;;;19.38;56.91;101172.86;1606693;89;21077;-89
2021/07/18 19:31:46;;;;;;;11.25;4.95;;;;;;;19.31;57.14;101168.44;1605431;89;21281;-88
2021/07/18 19:34:12;;;;;;;10.45;4.72;;;;;;;19.23;57.43;101173.35;1642089;84;21034;-88
2021/07/18 19:36:43;;;;;;;10.38;5.55;;;;;;;19.15;57.67;101175.17;1687835;85;22009;-88
2021/07/18 19:39:10;;;;;;;16.87;7.55;;;;;;;19.08;57.92;101176.54;1689379;83;21094;-82
2021/07/18 19:41:36;;;;;;;17.45;11.03;;;;;;;19.03;58.17;101177.87;1689302;84;21086;-82
2021/07/18 19:44:04;;;;;;;27.20;15.45;;;;;;;19.00;58.43;101178.78;1689474;83;21647;-82
2021/07/18 19:46:32;;;;;;;22.15;14.60;;;;;;;18.96;58.68;101181.48;1689569;85;21007;-82
2021/07/18 19:49:01;;;;;;;16.67;10.68;;;;;;;18.93;58.85;101185.02;1668132;85;21718;-82
2021/07/18 19:51:30;;;;;;;17.27;8.45;;;;;;;18.89;59.08;101185.05;1689592;84;21067;-82
2021/07/18 19:54:01;;;;;;;12.90;7.85;;;;;;;18.83;59.26;101188.61;1668016;85;21560;-81
2021/07/18 19:56:26;;;;;;;13.78;7.53;;;;;;;18.76;59.40;101184.14;1688810;84;21481;-81
2021/07/18 19:58:53;;;;;;;16.40;7.92;;;;;;;18.69;59.55;101184.58;1682349;83;21151;-81
2021/07/18 20:01:20;;;;;;;14.68;6.45;;;;;;;18.62;59.74;101186.39;1718696;83;21765;-81
2021/07/18 20:03:47;;;;;;;18.65;6.50;;;;;;;18.58;59.94;101193.04;1718618;83;20996;-81
2021/07/18 20:06:15;;;;;;;19.55;6.25;;;;;;;18.56;60.04;101192.16;1710119;82;21046;-81
2021/07/18 20:08:41;;;;;;;14.53;5.25;;;;;;;18.51;60.18;101192.17;1718540;83;21217;-81
2021/07/18 20:11:08;;;;;;;15.18;5.40;;;;;;;18.49;60.29;101190.38;1713116;82;21007;-81